Terminal Aerodrome Forecast
Issued by NWS

Home | Current Version | Previous Version | Text Only | Print | Product List | Glossary On
Versions: 1 2 3 4 5 6 7 8 9 10 11 12 13 14 15 16 17 18 19 20 21 22 23 24 25 26 27
000
FTUS41 KBUF 200900 AAA
TAFIAG
TAF AMD
KIAG 200907Z 2009/2106 16005KT P6SM FEW040 OVC100
     FM201600 21013KT P6SM OVC080
     FM202100 21013G21KT P6SM OVC035
     FM202300 20013G21KT 6SM -SHRA OVC030
     FM210100 20013KT 6SM -SHRA OVC020
     FM210200 20012KT 4SM SHRA OVC020=

USA.gov is the U.S. government's official web portal to all federal, state and local government web resources and services.